Time;durP1;ratioP1;P1;durP2;ratioP2;P2;SDS_P1;SDS_P2;PMS_P1;PMS_P2;Temp;Humidity;BMP_temperature;BMP_pressure;BME280_temperature;BME280_humidity;BME280_pressure;Samples;Min_cycle;Max_cycle;Signal;HPM_P1;HPM_P2
2022/05/21 00:01:06;;;;;;;8.07;4.80;;;;;;;10.35;100.00;101657.69;4848962;29;20056;-83
2022/05/21 00:03:34;;;;;;;6.03;4.50;;;;;;;10.35;100.00;101662.97;4878434;29;20503;-81
2022/05/21 00:06:03;;;;;;;10.48;4.43;;;;;;;10.34;100.00;101655.94;4891120;29;20056;-83
2022/05/21 00:08:36;;;;;;;8.80;4.95;;;;;;;10.33;100.00;101654.13;4863940;29;20071;-83
2022/05/21 00:11:05;;;;;;;6.50;4.75;;;;;;;10.33;100.00;101659.41;4888029;29;20048;-83
2022/05/21 00:13:33;;;;;;;9.88;4.93;;;;;;;10.32;100.00;101657.63;4858500;29;20045;-83
2022/05/21 00:16:02;;;;;;;12.50;5.30;;;;;;;10.31;100.00;101654.09;4823145;29;20514;-83
2022/05/21 00:18:30;;;;;;;9.30;6.13;;;;;;;10.31;100.00;101661.13;4895659;29;20263;-83
2022/05/21 00:20:59;;;;;;;16.20;6.15;;;;;;;10.31;100.00;101658.50;4866895;29;20049;-83
2022/05/21 00:23:33;;;;;;;11.38;6.22;;;;;;;10.29;100.00;101660.19;4887600;29;20171;-82
2022/05/21 00:26:06;;;;;;;7.25;5.03;;;;;;;10.29;100.00;101660.19;4909306;29;20059;-84
2022/05/21 00:28:36;;;;;;;9.20;5.57;;;;;;;10.26;100.00;101652.22;4874594;29;20057;-82
2022/05/21 00:31:07;;;;;;;9.82;5.40;;;;;;;10.25;100.00;101645.19;4875981;29;20041;-85
2022/05/21 00:33:37;;;;;;;7.80;5.80;;;;;;;10.25;100.00;101645.19;4910381;29;20045;-82
2022/05/21 00:36:07;;;;;;;12.73;5.90;;;;;;;10.23;100.00;101650.44;4894456;29;20060;-82
2022/05/21 00:38:38;;;;;;;12.00;6.53;;;;;;;10.23;100.00;101642.53;4877042;29;20053;-83
2022/05/21 00:41:09;;;;;;;10.77;6.82;;;;;;;10.24;100.00;101643.41;4868684;29;20036;-82
2022/05/21 00:43:54;;;;;;;9.93;5.25;;;;;;;10.23;100.00;101642.53;4878944;29;20064;-82
2022/05/21 00:46:32;;;;;;;11.50;6.32;;;;;;;10.24;100.00;101643.41;4856053;29;20056;-82
2022/05/21 00:49:13;;;;;;;11.48;6.15;;;;;;;10.23;100.00;101639.00;4876914;29;20053;-83
2022/05/21 00:51:44;;;;;;;9.63;6.20;;;;;;;10.22;100.00;101629.31;4896321;29;20060;-83
2022/05/21 00:54:15;;;;;;;11.65;6.90;;;;;;;10.21;100.00;101632.81;4893131;29;20175;-83
2022/05/21 00:56:51;;;;;;;14.23;7.50;;;;;;;10.24;100.00;101630.22;4879494;29;20044;-82
2022/05/21 01:02:08;;;;;;;17.10;8.73;;;;;;;10.23;100.00;101624.09;4857095;29;20041;-83
2022/05/21 01:04:38;;;;;;;12.93;8.20;;;;;;;10.25;100.00;101639.94;4905957;23;20414;-80
2022/05/21 01:07:06;;;;;;;16.40;9.18;;;;;;;10.25;100.00;101627.63;4886943;29;20063;-80
2022/05/21 01:09:39;;;;;;;20.35;9.50;;;;;;;10.30;100.00;101627.69;4890598;29;20067;-80
2022/05/21 01:12:08;;;;;;;18.48;9.23;;;;;;;10.34;100.00;101626.94;4886946;29;20057;-80
2022/05/21 01:14:39;;;;;;;15.40;9.50;;;;;;;10.36;100.00;101619.97;4883884;29;20079;-80
2022/05/21 01:17:08;;;;;;;16.50;9.65;;;;;;;10.39;100.00;101617.34;4848456;29;20056;-80
2022/05/21 01:20:00;;;;;;;18.58;10.55;;;;;;;10.43;100.00;101623.56;4872403;29;20083;-80
2022/05/21 01:22:53;;;;;;;21.95;11.00;;;;;;;10.48;100.00;101617.50;4871815;29;20053;-80
2022/05/21 01:25:25;;;;;;;20.63;11.57;;;;;;;10.51;100.00;101621.97;4848265;29;20064;-80
2022/05/21 01:27:54;;;;;;;17.13;11.48;;;;;;;10.54;100.00;101619.34;4877030;29;20037;-80
2022/05/21 01:30:29;;;;;;;22.77;12.65;;;;;;;10.57;100.00;101615.84;4815755;29;20354;-80
2022/05/21 01:32:57;;;;;;;20.63;11.93;;;;;;;10.59;100.00;101611.53;4865771;29;20064;-80
2022/05/21 01:35:25;;;;;;;20.73;13.07;;;;;;;10.62;100.00;101612.44;4859808;29;20047;-80
2022/05/21 01:37:54;;;;;;;25.38;13.13;;;;;;;10.65;100.00;101608.97;4905973;29;20044;-80
2022/05/21 01:40:22;;;;;;;22.73;12.77;;;;;;;10.68;100.00;101611.63;4874914;29;20346;-80
2022/05/21 01:45:38;;;;;;;26.33;14.80;;;;;;;10.72;100.00;101609.09;4868501;29;20044;-80
2022/05/21 01:48:06;;;;;;;27.20;15.13;;;;;;;10.73;100.00;101602.94;4858731;29;20049;-80
2022/05/21 01:50:36;;;;;;;25.75;17.50;;;;;;;10.75;100.00;101602.09;4896196;29;20040;-80
2022/05/21 01:53:06;;;;;;;32.20;18.38;;;;;;;10.77;100.00;101593.31;4893119;29;20051;-80
2022/05/21 01:55:34;;;;;;;30.23;17.70;;;;;;;10.79;100.00;101602.13;4891030;29;20386;-80
2022/05/21 01:58:03;;;;;;;26.83;16.25;;;;;;;10.81;100.00;101592.53;4874197;29;20498;-80
2022/05/21 02:00:33;;;;;;;;;;;;;;;10.86;100.00;101596.09;4884065;29;20045;-80
2022/05/21 02:03:02;;;;;;;28.15;18.17;;;;;;;10.87;100.00;101587.34;4869267;29;20313;-80
2022/05/21 02:05:31;;;;;;;25.48;17.00;;;;;;;10.92;100.00;101590.03;4882086;29;20060;-81
2022/05/21 02:08:00;;;;;;;34.25;19.80;;;;;;;10.98;100.00;101594.50;4875271;29;20052;-81
2022/05/21 02:10:29;;;;;;;30.50;18.90;;;;;;;11.02;100.00;101591.03;4861973;29;20274;-81
2022/05/21 02:12:57;;;;;;;31.65;20.00;;;;;;;11.06;100.00;101593.75;4872394;29;20053;-81
2022/05/21 02:15:26;;;;;;;24.55;18.75;;;;;;;11.09;100.00;101591.13;4878894;29;20274;-81
2022/05/21 02:17:54;;;;;;;35.22;22.02;;;;;;;11.15;100.00;101589.44;4868028;29;20033;-81
2022/05/21 02:20:23;;;;;;;35.17;21.00;;;;;;;11.17;100.00;101583.34;4876757;29;20047;-81
2022/05/21 02:22:51;;;;;;;32.10;20.13;;;;;;;11.21;100.00;101592.16;4875338;29;20056;-81
2022/05/21 02:25:20;;;;;;;37.20;22.77;;;;;;;11.23;100.00;101588.69;4874642;29;20037;-81
2022/05/21 02:27:49;;;;;;;33.45;22.30;;;;;;;11.27;100.00;101577.28;4895496;29;20044;-81
2022/05/21 02:30:18;;;;;;;31.17;20.58;;;;;;;11.29;100.00;101578.19;4874545;29;20052;-81
2022/05/21 02:32:46;;;;;;;39.35;23.02;;;;;;;11.31;100.00;101579.09;4858379;29;20041;-81
2022/05/21 02:35:15;;;;;;;35.53;23.83;;;;;;;11.33;100.00;101565.94;4836711;29;20045;-79
2022/05/21 02:40:31;;;;;;;37.50;25.20;;;;;;;11.38;100.00;101571.25;4873803;29;20057;-80
2022/05/21 02:42:59;;;;;;;40.50;26.05;;;;;;;11.39;100.00;101565.97;4867922;29;20047;-79
2022/05/21 02:45:29;;;;;;;36.65;24.85;;;;;;;11.41;100.00;101563.38;4888324;29;20061;-79
2022/05/21 02:48:03;;;;;;;35.25;25.02;;;;;;;11.41;100.00;101558.97;4859750;29;20033;-79
2022/05/21 02:50:34;;;;;;;41.83;27.77;;;;;;;11.44;100.00;101558.13;4839526;29;20041;-79
2022/05/21 02:53:03;;;;;;;;;;;;;;;11.46;100.00;101552.00;4864556;29;20060;-79
2022/05/21 02:55:32;;;;;;;38.60;26.42;;;;;;;11.47;100.00;101544.94;4891142;29;19930;-80
2022/05/21 02:58:01;;;;;;;46.75;28.83;;;;;;;11.47;100.00;101550.22;4868822;29;20051;-79
2022/05/21 03:00:31;;;;;;;49.13;30.05;;;;;;;11.48;100.00;101552.91;4858132;29;20533;-79
2022/05/21 03:02:59;;;;;;;44.60;29.47;;;;;;;11.50;100.00;101552.91;4863707;29;20072;-79
2022/05/21 03:05:29;;;;;;;44.65;30.88;;;;;;;11.52;100.00;101549.41;4843809;29;20317;-80
2022/05/21 03:08:00;;;;;;;44.80;29.90;;;;;;;11.54;100.00;101549.44;4860672;29;20053;-79
2022/05/21 03:10:29;;;;;;;;;;;;;;;11.58;100.00;101553.00;4863135;29;20068;-79
2022/05/21 03:13:00;;;;;;;43.13;28.25;;;;;;;11.59;100.00;101554.78;4904396;29;19924;-79
2022/05/21 03:15:35;;;;;;;46.05;27.75;;;;;;;11.60;100.00;101553.91;4887903;29;20583;-79
2022/05/21 03:18:07;;;;;;;42.83;29.10;;;;;;;11.62;100.00;101553.03;4881140;29;20525;-79
2022/05/21 03:20:36;;;;;;;41.40;28.58;;;;;;;11.65;100.00;101561.00;4863559;29;20813;-80
2022/05/21 03:23:06;;;;;;;46.70;26.02;;;;;;;11.67;100.00;101575.09;4885823;29;20060;-79
2022/05/21 03:25:36;;;;;;;40.60;24.83;;;;;;;11.68;100.00;101566.31;4886585;29;20037;-79
2022/05/21 03:28:05;;;;;;;44.50;25.83;;;;;;;11.70;100.00;101563.66;4878453;29;20498;-79
2022/05/21 03:30:33;;;;;;;40.40;24.20;;;;;;;11.71;100.00;101552.25;4888852;29;20071;-79
2022/05/21 03:33:02;;;;;;;37.53;23.23;;;;;;;11.75;100.00;101561.97;4883504;29;20048;-79
2022/05/21 03:35:33;;;;;;;38.78;22.05;;;;;;;11.77;100.00;101561.97;4868489;29;20544;-80
2022/05/21 03:38:02;;;;;;;40.85;20.35;;;;;;;11.79;100.00;101561.13;4846999;29;20041;-81
2022/05/21 03:40:31;;;;;;;40.75;22.27;;;;;;;11.81;100.00;101562.00;4891141;29;20063;-78
2022/05/21 03:43:01;;;;;;;39.53;20.92;;;;;;;11.83;100.00;101564.69;4881752;29;20529;-81
2022/05/21 03:45:30;;;;;;;33.85;19.88;;;;;;;11.83;100.00;101562.03;4891062;29;20066;-79
2022/05/21 03:47:59;;;;;;;43.30;21.35;;;;;;;11.84;100.00;101566.47;4868969;29;20045;-79
2022/05/21 03:50:31;;;;;;;37.33;19.67;;;;;;;11.87;100.00;101577.03;4863573;29;20076;-79
2022/05/21 03:53:01;;;;;;;38.53;20.92;;;;;;;11.87;100.00;101567.38;4864460;29;20048;-82
2022/05/21 03:55:30;;;;;;;33.75;17.13;;;;;;;11.90;100.00;101567.41;4868642;29;20041;-81
2022/05/21 03:57:59;;;;;;;28.65;16.70;;;;;;;11.93;100.00;101565.66;4883678;29;20045;-81
2022/05/21 04:00:28;;;;;;;33.83;17.10;;;;;;;11.94;100.00;101565.69;4874881;29;20044;-81
2022/05/21 04:02:58;;;;;;;26.75;15.75;;;;;;;11.96;100.00;101560.44;4860426;29;20033;-79
2022/05/21 04:05:28;;;;;;;29.73;15.65;;;;;;;11.98;100.00;101569.25;4891973;29;20044;-79
2022/05/21 04:07:56;;;;;;;22.30;12.38;;;;;;;12.01;100.00;101572.81;4845289;29;20044;-79
2022/05/21 04:10:26;;;;;;;28.08;13.18;;;;;;;12.04;100.00;101575.50;4870782;29;20056;-79
2022/05/21 04:12:54;;;;;;;24.08;10.60;;;;;;;12.07;100.00;101582.53;4865235;29;20044;-80
2022/05/21 04:15:22;;;;;;;28.50;9.30;;;;;;;12.09;100.00;101575.50;4884244;29;20052;-79
2022/05/21 04:17:53;;;;;;;23.67;9.02;;;;;;;12.12;100.00;101574.63;4856954;29;20264;-79
2022/05/21 04:20:23;;;;;;;23.90;7.13;;;;;;;12.15;100.00;101582.59;4854602;29;20053;-80
2022/05/21 04:22:52;;;;;;;23.15;7.70;;;;;;;12.17;100.00;101586.16;4886539;29;20675;-79
2022/05/21 04:25:20;;;;;;;22.50;8.07;;;;;;;12.19;100.00;101580.03;4859997;29;20037;-80
2022/05/21 04:27:49;;;;;;;19.75;6.75;;;;;;;12.21;100.00;101582.66;4890438;29;20171;-79
2022/05/21 04:30:25;;;;;;;23.98;7.88;;;;;;;12.24;100.00;101587.97;4892027;29;20143;-80
2022/05/21 04:32:56;;;;;;;20.25;7.43;;;;;;;12.27;100.00;101582.72;4889074;29;20065;-79
2022/05/21 04:36:17;;;;;;;23.42;6.18;;;;;;;12.29;100.00;101581.84;4891708;29;20049;-79
2022/05/21 04:38:17;;;;;;;23.25;6.78;;;;;;;12.31;100.00;101589.78;4880581;29;20494;-79
2022/05/21 04:40:46;;;;;;;28.42;7.28;;;;;;;12.33;100.00;101588.06;4869019;29;20581;-79
2022/05/21 04:43:14;;;;;;;18.67;6.00;;;;;;;12.37;100.00;101591.59;4884658;29;20041;-79
2022/05/21 04:45:43;;;;;;;18.27;6.20;;;;;;;12.38;100.00;101590.72;4889215;29;20252;-79
2022/05/21 04:48:11;;;;;;;21.98;5.82;;;;;;;12.36;100.00;101598.66;4878475;29;20049;-79
2022/05/21 04:50:40;;;;;;;22.67;6.28;;;;;;;12.37;100.00;101595.13;4867022;29;20044;-79
2022/05/21 04:53:08;;;;;;;17.73;4.85;;;;;;;12.40;100.00;101599.53;4861004;29;20047;-79
2022/05/21 04:55:37;;;;;;;19.23;5.13;;;;;;;12.39;100.00;101601.31;4840181;29;20346;-79
2022/05/21 04:58:06;;;;;;;14.60;4.72;;;;;;;12.42;100.00;101609.28;4890612;29;20462;-79
2022/05/21 05:00:35;;;;;;;19.95;5.55;;;;;;;12.43;100.00;101608.38;4887406;29;20052;-79
2022/05/21 05:03:10;;;;;;;17.92;4.63;;;;;;;12.44;100.00;101604.88;4860037;29;20063;-79
2022/05/21 05:05:40;;;;;;;15.40;4.25;;;;;;;12.45;100.00;101603.09;4868658;29;20274;-78
2022/05/21 05:08:12;;;;;;;20.20;4.72;;;;;;;12.45;100.00;101611.91;4891914;29;20036;-81
2022/05/21 05:10:40;;;;;;;20.00;3.90;;;;;;;12.49;100.00;101612.81;4867298;29;20264;-81
2022/05/21 05:13:09;;;;;;;8.82;3.25;;;;;;;12.57;100.00;101612.88;4876101;29;20040;-81
2022/05/21 05:15:38;;;;;;;13.52;3.88;;;;;;;12.63;100.00;101626.16;4885225;29;20062;-80
2022/05/21 05:18:09;;;;;;;19.23;4.22;;;;;;;12.83;100.00;101623.63;4895500;29;20057;-80
2022/05/21 05:20:39;;;;;;;12.95;4.22;;;;;;;12.84;100.00;101623.66;4893018;29;20699;-81
2022/05/21 05:23:08;;;;;;;13.73;3.58;;;;;;;12.84;100.00;101628.94;4869733;29;20071;-80
2022/05/21 05:25:37;;;;;;;9.30;3.67;;;;;;;12.83;100.00;101626.28;4892523;29;20040;-80
2022/05/21 05:28:19;;;;;;;20.38;4.35;;;;;;;12.79;100.00;101637.72;4820619;29;20383;-80
2022/05/21 05:30:49;;;;;;;13.95;3.55;;;;;;;12.77;100.00;101639.47;4861069;29;20064;-80
2022/05/21 05:33:18;;;;;;;14.95;3.90;;;;;;;12.75;100.00;101642.09;4846080;29;20052;-81
2022/05/21 05:35:52;;;;;;;17.52;4.70;;;;;;;12.77;100.00;101640.34;4873282;29;20282;-80
2022/05/21 05:38:22;;;;;;;15.82;3.70;;;;;;;12.74;100.00;101645.63;4880633;29;20033;-81
2022/05/21 05:40:52;;;;;;;9.30;3.25;;;;;;;12.73;100.00;101649.16;4896670;29;20171;-80
2022/05/21 05:43:21;;;;;;;14.80;3.92;;;;;;;12.70;100.00;101649.13;4836001;29;20041;-81
2022/05/21 05:45:51;;;;;;;11.15;4.35;;;;;;;12.71;100.00;101652.66;4894521;29;20697;-80
2022/05/21 05:48:20;;;;;;;;;;;;;;;12.68;100.00;101659.69;4894904;29;20529;-81
2022/05/21 05:50:55;;;;;;;15.98;3.63;;;;;;;12.71;100.00;101661.47;4912050;29;20265;-80
2022/05/21 05:53:24;;;;;;;11.68;4.35;;;;;;;12.81;100.00;101655.34;4871772;29;20499;-81
2022/05/21 05:55:52;;;;;;;15.27;3.45;;;;;;;12.95;100.00;101663.41;4876250;29;20616;-80
2022/05/21 06:01:09;;;;;;;14.68;4.00;;;;;;;13.07;100.00;101668.75;4893988;29;20049;-81
2022/05/21 06:03:38;;;;;;;15.40;3.72;;;;;;;13.14;100.00;101663.53;4858482;29;20056;-80
2022/05/21 06:06:06;;;;;;;15.00;3.65;;;;;;;13.15;100.00;101668.81;4878666;29;20044;-81
2022/05/21 06:08:37;;;;;;;12.93;3.17;;;;;;;13.11;100.00;101667.03;4885883;29;20782;-79
2022/05/21 06:11:07;;;;;;;10.30;3.67;;;;;;;13.13;100.00;101672.31;4875848;29;20045;-79
2022/05/21 06:13:36;;;;;;;15.07;3.90;;;;;;;13.11;100.00;101672.31;4848923;29;20063;-80
2022/05/21 06:16:05;;;;;;;17.27;4.00;;;;;;;13.10;100.00;101675.84;4894919;29;20048;-79
2022/05/21 06:18:33;;;;;;;11.05;3.25;;;;;;;13.21;100.00;101683.84;4890520;29;20052;-80
2022/05/21 06:21:04;;;;;;;14.88;4.07;;;;;;;13.27;100.00;101684.75;4894887;29;20071;-80
2022/05/21 06:23:33;;;;;;;15.60;3.80;;;;;;;13.35;100.00;101682.19;4886331;29;20521;-80
2022/05/21 06:26:02;;;;;;;12.80;3.50;;;;;;;13.39;100.00;101685.75;4894787;29;20064;-80
2022/05/21 06:28:31;;;;;;;10.95;3.63;;;;;;;13.47;100.00;101691.94;4865071;29;20410;-80
2022/05/21 06:30:59;;;;;;;12.60;3.70;;;;;;;13.53;100.00;101689.31;4875593;29;20135;-80
2022/05/21 06:33:30;;;;;;;15.68;3.15;;;;;;;13.56;100.00;101692.00;4890854;29;20048;-80
2022/05/21 06:36:06;;;;;;;18.02;3.70;;;;;;;13.68;100.00;101690.28;4895221;29;20049;-80
2022/05/21 06:38:38;;;;;;;13.35;3.60;;;;;;;13.71;100.00;101693.81;4883866;29;20448;-80
2022/05/21 06:41:08;;;;;;;10.98;3.50;;;;;;;13.83;100.00;101698.28;4866391;29;20402;-80
2022/05/21 06:43:37;;;;;;;14.77;3.63;;;;;;;13.94;100.00;101699.19;4850196;29;20041;-80
2022/05/21 06:46:06;;;;;;;13.23;4.07;;;;;;;14.06;100.00;101697.44;4880301;29;20045;-81
2022/05/21 06:48:34;;;;;;;11.90;3.13;;;;;;;14.06;100.00;101694.81;4877314;29;20052;-81
2022/05/21 06:51:05;;;;;;;11.75;3.40;;;;;;;14.15;100.00;101721.34;4879833;29;20394;-81
2022/05/21 06:53:36;;;;;;;14.40;3.78;;;;;;;14.19;100.00;101712.50;4892654;29;20130;-81
2022/05/21 06:56:09;;;;;;;13.10;3.63;;;;;;;14.16;100.00;101720.47;4874403;29;20059;-80
2022/05/21 06:58:38;;;;;;;17.90;3.75;;;;;;;14.14;100.00;101715.16;4867053;29;20045;-81
2022/05/21 07:01:06;;;;;;;12.70;3.30;;;;;;;14.10;100.00;101721.34;4863997;29;20049;-81
2022/05/21 07:03:35;;;;;;;12.60;3.38;;;;;;;14.14;100.00;101727.50;4892056;29;20065;-80
2022/05/21 07:08:51;;;;;;;13.80;4.15;;;;;;;14.26;100.00;101731.97;4877395;29;20048;-80
2022/05/21 07:11:20;;;;;;;12.65;2.85;;;;;;;14.27;100.00;101731.06;4894718;29;20049;-81
2022/05/21 07:13:48;;;;;;;10.77;3.53;;;;;;;14.29;100.00;101732.88;4867902;29;20303;-80
2022/05/21 07:16:16;;;;;;;14.35;2.70;;;;;;;14.25;100.00;101733.72;4860591;29;20128;-81
2022/05/21 07:18:46;;;;;;;9.43;3.45;;;;;;;14.19;100.00;101742.53;4843096;29;20053;-81
2022/05/21 07:21:17;;;;;;;11.02;2.90;;;;;;;14.10;100.00;101741.63;4861424;29;20130;-81
2022/05/21 07:23:46;;;;;;;;;;;;;;;14.10;100.00;101747.84;4874357;29;20049;-81
2022/05/21 07:26:17;;;;;;;9.52;2.85;;;;;;;14.20;100.00;101751.41;4891356;29;19934;-81
2022/05/21 07:28:46;;;;;;;13.00;3.08;;;;;;;14.36;100.00;101749.66;4824413;29;20056;-81
2022/05/21 07:31:16;;;;;;;11.82;3.22;;;;;;;14.47;100.00;101761.16;4870683;29;20060;-81
2022/05/21 07:33:45;;;;;;;8.88;2.90;;;;;;;14.51;100.00;101767.34;4842741;29;20045;-81
2022/05/21 07:36:13;;;;;;;11.85;2.90;;;;;;;14.52;100.00;101769.13;4853253;29;20048;-81
2022/05/21 07:38:41;;;;;;;13.55;2.97;;;;;;;14.58;100.00;101766.53;4855031;29;20271;-81
2022/05/21 07:41:11;;;;;;;12.10;2.92;;;;;;;14.66;100.00;101767.41;4871869;29;20052;-80
2022/05/21 07:43:39;;;;;;;15.25;3.58;;;;;;;14.73;100.00;101774.50;4876385;29;20226;-81
2022/05/21 07:46:08;;;;;;;13.05;3.45;;;;;;;14.76;100.00;101773.59;4856742;29;20033;-81
2022/05/21 07:48:37;;;;;;;8.63;2.55;;;;;;;14.77;100.00;101784.22;4869348;29;20052;-80
2022/05/21 07:51:08;;;;;;;13.55;3.65;;;;;;;14.87;100.00;101773.63;4876650;29;20052;-81
2022/05/21 07:53:40;;;;;;;9.90;2.85;;;;;;;14.94;100.00;101783.34;4882329;29;20048;-80
2022/05/21 07:56:11;;;;;;;13.90;3.05;;;;;;;15.05;100.00;101796.59;4875207;29;20057;-81
2022/05/21 07:58:40;;;;;;;8.52;3.28;;;;;;;15.12;100.00;101796.63;4842798;29;20045;-81
2022/05/21 08:01:10;;;;;;;10.70;2.33;;;;;;;15.16;100.00;101795.72;4865131;29;20041;-82
2022/05/21 08:03:46;;;;;;;10.88;2.58;;;;;;;15.12;100.00;101799.28;4864451;29;20056;-81
2022/05/21 08:06:15;;;;;;;10.43;2.92;;;;;;;15.09;100.00;101801.06;4875764;29;20510;-82
2022/05/21 08:08:45;;;;;;;11.95;3.17;;;;;;;15.01;100.00;101799.28;4867570;29;20040;-81
2022/05/21 08:11:14;;;;;;;11.23;2.97;;;;;;;15.02;100.00;101801.03;4867734;29;20040;-82
2022/05/21 08:13:43;;;;;;;15.73;2.80;;;;;;;14.98;100.00;101801.03;4856498;29;20047;-81
2022/05/21 08:16:13;;;;;;;10.70;2.35;;;;;;;14.99;100.00;101808.13;4836283;29;20528;-82
2022/05/21 08:18:43;;;;;;;;;;;;;;;15.08;100.00;101812.53;4887574;29;20056;-81
2022/05/21 08:21:11;;;;;;;9.30;2.70;;;;;;;15.06;100.00;101815.19;4873580;29;19930;-80
2022/05/21 08:29:16;;;;;;;9.48;3.22;;;;;;;15.27;100.00;101810.75;4878101;29;20057;-82
2022/05/21 08:31:45;;;;;;;13.18;2.75;;;;;;;15.25;100.00;101825.81;4848209;29;20033;-81
2022/05/21 08:34:13;;;;;;;6.53;2.75;;;;;;;15.18;100.00;101827.59;4897300;29;20405;-80
2022/05/21 08:36:42;;;;;;;8.65;2.60;;;;;;;15.14;100.00;101824.06;4866773;29;20048;-81
2022/05/21 08:39:10;;;;;;;8.85;2.78;;;;;;;15.10;100.00;101822.25;4882858;29;20037;-81
2022/05/21 08:41:51;;;;;;;8.18;2.47;;;;;;;15.09;100.00;101831.13;4858468;29;20048;-81
2022/05/21 08:44:24;;;;;;;12.52;2.80;;;;;;;15.18;100.00;101831.13;4878679;29;20057;-81
2022/05/21 08:47:17;;;;;;;10.32;3.00;;;;;;;15.27;100.00;101832.00;4863867;29;20075;-81
2022/05/21 08:50:09;;;;;;;9.90;2.38;;;;;;;15.43;100.00;101830.22;4869769;29;20055;-81
2022/05/21 08:52:49;;;;;;;8.35;2.67;;;;;;;15.59;100.00;101832.88;4894823;29;20048;-81
2022/05/21 08:55:21;;;;;;;10.33;2.60;;;;;;;15.71;100.00;101831.94;4867880;29;20055;-81
2022/05/21 08:58:03;;;;;;;12.75;3.45;;;;;;;15.71;100.00;101842.56;4873221;29;20045;-81
2022/05/21 09:00:42;;;;;;;12.18;2.80;;;;;;;15.67;100.00;101848.78;4863601;29;20032;-81
2022/05/21 09:03:17;;;;;;;13.43;2.53;;;;;;;15.69;100.00;101851.41;4847868;29;20048;-82
2022/05/21 09:05:57;;;;;;;8.35;2.33;;;;;;;15.67;100.00;101850.53;4882675;29;20040;-81
2022/05/21 09:08:33;;;;;;;11.25;2.72;;;;;;;15.71;100.00;101842.56;4902202;29;20048;-81
2022/05/21 09:11:15;;;;;;;11.45;2.83;;;;;;;15.84;100.00;101842.56;4879206;29;20067;-81
2022/05/21 09:14:02;;;;;;;10.82;2.95;;;;;;;15.86;100.00;101847.00;4870700;29;20057;-80
2022/05/21 09:16:55;;;;;;;12.10;2.88;;;;;;;15.90;100.00;101858.50;4877259;29;20654;-80
2022/05/21 09:19:34;;;;;;;11.23;2.78;;;;;;;15.93;100.00;101855.81;4857837;29;20056;-82
2022/05/21 09:22:04;;;;;;;11.38;3.00;;;;;;;15.84;100.00;101870.03;4892720;29;20052;-80
2022/05/21 09:24:42;;;;;;;9.98;2.75;;;;;;;15.74;100.00;101873.59;4884161;29;20589;-80
2022/05/21 09:27:36;;;;;;;9.85;2.65;;;;;;;15.71;100.00;101870.94;4877860;29;20051;-80
2022/05/21 09:30:27;;;;;;;9.38;2.05;;;;;;;15.57;100.00;101870.94;4897023;29;20398;-79
2022/05/21 09:32:58;;;;;;;8.82;2.38;;;;;;;15.46;100.00;101873.59;4867327;29;20025;-80
2022/05/21 09:35:52;;;;;;;6.32;1.85;;;;;;;15.42;100.00;101871.81;4876772;29;20052;-80
2022/05/21 09:38:33;;;;;;;11.65;2.47;;;;;;;15.39;100.00;101877.16;4864571;29;20033;-82
2022/05/21 09:41:07;;;;;;;10.88;2.40;;;;;;;15.45;100.00;101884.25;4872248;29;20037;-82
2022/05/21 09:46:30;;;;;;;9.77;3.00;;;;;;;15.73;100.00;101880.69;4881801;29;20251;-82
2022/05/21 09:49:31;;;;;;;11.25;3.42;;;;;;;15.84;100.00;101893.06;4870207;29;20051;-83
2022/05/21 09:52:26;;;;;;;13.55;2.60;;;;;;;15.76;100.00;101891.31;4894235;29;20036;-82
2022/05/21 09:54:54;;;;;;;11.30;2.75;;;;;;;15.73;100.00;101896.63;4884178;29;20044;-81
2022/05/21 09:57:45;;;;;;;11.95;2.95;;;;;;;15.62;100.00;101889.53;4866143;29;20028;-81
2022/05/21 10:00:21;;;;;;;9.50;2.92;;;;;;;15.61;100.00;101891.28;4902848;29;20052;-82
2022/05/21 10:02:55;;;;;;;11.57;2.92;;;;;;;15.63;100.00;101892.16;4867865;29;20029;-82
2022/05/21 10:05:28;;;;;;;8.02;2.20;;;;;;;15.75;100.00;101884.22;4866057;29;20049;-81
2022/05/21 10:11:02;;;;;;;11.73;2.97;;;;;;;16.14;100.00;101900.06;4885028;29;20041;-83
2022/05/21 10:13:42;;;;;;;10.88;3.25;;;;;;;16.34;100.00;101902.66;4874758;29;20274;-82
2022/05/21 10:16:17;;;;;;;9.77;2.80;;;;;;;16.52;100.00;101905.25;4894717;29;20271;-83
2022/05/21 10:19:15;;;;;;;10.90;2.50;;;;;;;16.57;100.00;101907.88;4863405;29;21414;-81
2022/05/21 10:22:11;;;;;;;9.18;2.60;;;;;;;16.45;100.00;101905.28;4877828;29;20687;-83
2022/05/21 10:24:54;;;;;;;8.82;2.72;;;;;;;16.34;100.00;101910.66;4888270;29;20045;-82
2022/05/21 10:27:46;;;;;;;14.10;3.03;;;;;;;16.32;100.00;101912.44;4857600;29;20045;-82
2022/05/21 10:30:52;;;;;;;9.95;2.63;;;;;;;16.27;100.00;101907.13;4885672;29;20045;-82
2022/05/21 10:33:40;;;;;;;9.25;2.83;;;;;;;16.18;100.00;101912.47;4895267;29;20033;-81
2022/05/21 10:36:55;;;;;;;11.60;2.78;;;;;;;16.11;100.00;101918.72;4868049;29;20286;-81
2022/05/21 10:39:34;;;;;;;7.63;2.08;;;;;;;15.95;100.00;101917.84;4885580;29;20063;-82
2022/05/21 10:42:35;;;;;;;8.45;2.97;;;;;;;15.85;100.00;101924.94;4885545;29;20235;-83
2022/05/21 10:45:31;;;;;;;8.77;2.70;;;;;;;15.76;100.00;101930.28;4887692;29;20065;-84
2022/05/21 10:48:27;;;;;;;15.25;3.30;;;;;;;15.66;100.00;101932.03;4880257;29;20041;-84
2022/05/21 10:51:10;;;;;;;11.57;2.83;;;;;;;15.60;100.00;101930.25;4855593;29;20619;-84
2022/05/21 10:53:57;;;;;;;15.48;3.22;;;;;;;15.86;100.00;101923.16;4886293;29;20059;-85
2022/05/21 10:56:45;;;;;;;8.27;2.83;;;;;;;16.26;100.00;101925.75;4864561;29;20411;-84
2022/05/21 10:59:36;;;;;;;10.55;2.33;;;;;;;16.48;100.00;101926.53;4855569;29;20060;-84
2022/05/21 11:02:49;;;;;;;9.88;2.90;;;;;;;16.67;99.34;101925.59;4891410;29;20264;-84
2022/05/21 11:05:42;;;;;;;8.07;2.85;;;;;;;16.71;97.96;101923.78;4874711;29;20061;-83
2022/05/21 11:08:49;;;;;;;10.88;2.58;;;;;;;16.81;99.87;101922.84;4868239;29;20664;-83
2022/05/21 11:12:11;;;;;;;12.23;2.88;;;;;;;17.01;99.19;101936.06;4875893;29;20052;-81
2022/05/21 11:14:59;;;;;;;11.07;2.80;;;;;;;17.06;98.13;101930.72;4836214;29;20190;-87
2022/05/21 11:17:39;;;;;;;9.18;2.47;;;;;;;17.09;98.77;101926.25;4826506;29;20054;-84
2022/05/21 11:20:30;;;;;;;6.40;1.70;;;;;;;17.27;96.49;101921.69;4858524;29;20276;-81
2022/05/21 11:23:07;;;;;;;;;;;;;;;17.31;92.59;101934.09;4866823;29;20380;-82
2022/05/21 11:25:50;;;;;;;7.28;2.30;;;;;;;17.18;96.73;101929.75;4885435;29;19934;-83
2022/05/21 11:28:27;;;;;;;4.75;1.70;;;;;;;17.09;94.84;101931.59;4865982;29;20074;-82
2022/05/21 11:31:01;;;;;;;3.67;1.63;;;;;;;17.12;95.03;101934.22;4876064;29;20303;-81
2022/05/21 11:39:16;;;;;;;7.32;1.90;;;;;;;17.19;91.93;101939.53;4862400;29;20253;-83
2022/05/21 11:41:55;;;;;;;5.70;1.88;;;;;;;17.35;92.79;101933.16;4868599;29;20055;-82
2022/05/21 11:47:23;;;;;;;6.95;1.88;;;;;;;17.28;93.15;101942.13;4874119;29;20687;-82
2022/05/21 11:50:11;;;;;;;12.43;2.58;;;;;;;17.10;90.18;101946.66;4874242;29;20509;-83
2022/05/21 11:52:40;;;;;;;6.00;2.05;;;;;;;17.01;93.59;101953.81;4878037;29;20041;-82
2022/05/21 11:55:11;;;;;;;10.65;1.98;;;;;;;17.20;94.58;101949.25;4845537;29;20379;-83
2022/05/21 11:57:45;;;;;;;10.43;2.20;;;;;;;17.48;94.91;101966.81;4880448;29;20419;-82
2022/05/21 12:00:24;;;;;;;7.53;2.10;;;;;;;17.53;93.44;101956.13;4874665;29;20427;-82
2022/05/21 12:02:54;;;;;;;7.70;1.73;;;;;;;17.58;93.05;101953.41;4867781;29;20052;-82
2022/05/21 12:05:40;;;;;;;10.25;2.13;;;;;;;17.60;92.19;101948.94;4859245;29;20060;-82
2022/05/21 12:08:23;;;;;;;9.00;2.20;;;;;;;17.82;90.59;101958.53;4876727;29;20060;-82
2022/05/21 12:11:07;;;;;;;8.32;2.33;;;;;;;17.88;90.61;101966.53;4869555;29;20414;-82
2022/05/21 12:13:35;;;;;;;9.35;2.38;;;;;;;17.89;92.27;101946.94;4864423;29;20231;-83
2022/05/21 12:16:19;;;;;;;9.65;2.38;;;;;;;17.79;89.22;101973.66;4897145;29;20063;-83